createdAt,value
2019-01-11T00:03:57.951Z,76.62
2019-01-11T00:06:23.862Z,77.18
2019-01-11T00:08:49.748Z,77.35
2019-01-11T00:11:15.615Z,77.99
2019-01-11T00:13:41.531Z,77.63
2019-01-11T00:16:07.438Z,77.25
2019-01-11T00:18:33.307Z,77.30
2019-01-11T00:20:59.219Z,77.37
2019-01-11T00:23:25.231Z,77.31
2019-01-11T00:25:51.178Z,77.97
2019-01-11T00:28:17.025Z,78.67
2019-01-11T00:30:42.931Z,78.85
2019-01-11T00:33:08.810Z,78.65
2019-01-11T00:35:34.725Z,78.43
2019-01-11T00:38:00.584Z,78.02
2019-01-11T00:40:26.495Z,77.73
2019-01-11T00:42:52.357Z,77.83
2019-01-11T00:45:18.272Z,77.73
2019-01-11T00:47:44.157Z,77.94
2019-01-11T00:50:10.069Z,78.43
2019-01-11T00:52:36.079Z,78.28
2019-01-11T00:58:03.148Z,78.67
2019-01-11T01:00:29.126Z,78.35
2019-01-11T01:02:55.023Z,78.53
2019-01-11T01:05:20.998Z,78.50
2019-01-11T01:07:47.004Z,78.10
2019-01-11T01:10:12.910Z,77.97
2019-01-11T01:12:38.777Z,78.13
2019-01-11T01:15:46.318Z,77.70
2019-01-11T01:18:12.255Z,78.42
2019-01-11T01:20:38.138Z,78.37
2019-01-11T01:23:04.094Z,78.29
2019-01-11T01:25:29.944Z,78.80
2019-01-11T01:27:55.815Z,77.96
2019-01-11T01:30:21.720Z,78.41
2019-01-11T01:32:47.586Z,78.91
2019-01-11T01:35:13.498Z,78.66
2019-01-11T01:37:39.424Z,78.13
2019-01-11T01:40:46.951Z,77.78
2019-01-11T01:43:12.865Z,77.83
2019-01-11T01:45:38.764Z,78.31
2019-01-11T01:48:04.629Z,78.39
2019-01-11T01:50:30.534Z,78.46
2019-01-11T01:52:56.414Z,78.01
2019-01-11T01:55:22.271Z,77.97
2019-01-11T02:00:21.860Z,78.62
2019-01-11T02:02:47.732Z,78.11
2019-01-11T02:08:01.043Z,77.83
2019-01-11T02:10:26.897Z,77.45
2019-01-11T02:12:52.823Z,77.72
2019-01-11T02:15:18.713Z,78.09
2019-01-11T02:17:44.608Z,78.10
2019-01-11T02:20:52.176Z,78.07
2019-01-11T02:23:18.240Z,78.51
2019-01-11T02:25:46.230Z,77.68
2019-01-11T02:28:11.954Z,78.83
2019-01-11T02:30:37.854Z,78.61
2019-01-11T02:33:03.765Z,78.45
2019-01-11T02:35:29.641Z,78.45
2019-01-11T02:37:55.661Z,79.25
2019-01-11T02:40:21.529Z,78.47
2019-01-11T02:42:47.426Z,78.42
2019-01-11T02:45:54.964Z,78.43
2019-01-11T02:48:20.840Z,78.55
2019-01-11T02:51:06.596Z,78.36
2019-01-11T02:56:33.530Z,78.45
2019-01-11T02:58:59.424Z,78.86
2019-01-11T03:01:25.295Z,79.29
2019-01-11T03:03:51.200Z,79.75
2019-01-11T03:06:17.068Z,79.59
2019-01-11T03:08:42.968Z,79.92
2019-01-11T03:11:08.832Z,79.27
2019-01-11T03:13:34.737Z,79.12
2019-01-11T03:16:00.633Z,79.46
2019-01-11T03:18:26.634Z,79.06
2019-01-11T03:20:52.501Z,79.27
2019-01-11T03:23:18.445Z,79.30
2019-01-11T03:25:44.308Z,79.48
2019-01-11T03:28:10.206Z,79.08
2019-01-11T03:30:36.075Z,79.62
2019-01-11T03:33:01.945Z,80.12
2019-01-11T03:35:27.844Z,79.96
2019-01-11T03:37:53.699Z,80.03
2019-01-11T03:41:01.232Z,80.37
2019-01-11T03:43:27.133Z,79.68
2019-01-11T03:45:53.042Z,79.27
2019-01-11T03:48:19.017Z,78.73
2019-01-11T03:50:44.910Z,79.54
2019-01-11T03:53:10.782Z,79.62
2019-01-11T03:55:36.691Z,79.74
2019-01-11T03:58:22.568Z,79.21
2019-01-11T04:00:48.531Z,79.44
2019-01-11T04:03:14.403Z,79.94
2019-01-11T04:05:40.275Z,80.00
2019-01-11T04:08:06.192Z,79.26
2019-01-11T04:10:32.051Z,80.44
2019-01-11T04:12:57.970Z,80.18
2019-01-11T04:15:23.845Z,80.36
2019-01-11T04:18:09.621Z,80.19
2019-01-11T04:20:35.524Z,80.26
2019-01-11T04:23:01.427Z,79.75
2019-01-11T04:25:27.456Z,79.77
2019-01-11T04:30:40.752Z,80.16
2019-01-11T04:33:06.658Z,80.74
2019-01-11T04:35:32.569Z,80.75
2019-01-11T04:38:18.431Z,80.89
2019-01-11T04:40:44.317Z,80.42
2019-01-11T04:43:10.232Z,80.69
2019-01-11T04:45:36.156Z,81.38
2019-01-11T04:48:02.018Z,80.98
2019-01-11T04:50:27.912Z,80.94
2019-01-11T04:52:53.947Z,81.02
2019-01-11T04:58:07.237Z,81.12
2019-01-11T05:00:33.095Z,80.84
2019-01-11T05:02:58.998Z,80.73
2019-01-11T05:05:24.873Z,80.97
2019-01-11T05:07:50.780Z,80.91
2019-01-11T05:10:16.743Z,80.99
2019-01-11T05:12:42.661Z,81.09
2019-01-11T05:15:08.527Z,80.91
2019-01-11T05:17:34.461Z,80.16
2019-01-11T05:20:00.392Z,80.90
2019-01-11T05:22:26.337Z,80.41
2019-01-11T05:27:30.027Z,80.65
2019-01-11T05:29:55.903Z,80.35
2019-01-11T05:32:21.797Z,80.38
2019-01-11T05:34:47.769Z,79.66
2019-01-11T05:37:13.659Z,79.72
2019-01-11T05:39:39.578Z,79.69
2019-01-11T05:42:05.545Z,80.10
2019-01-11T05:44:31.438Z,79.96
2019-01-11T05:46:57.304Z,80.23
2019-01-11T05:49:23.212Z,80.38
2019-01-11T05:51:49.070Z,80.63
2019-01-11T05:57:08.480Z,79.84
2019-01-11T05:59:34.446Z,80.16
2019-01-11T06:02:00.333Z,79.92
2019-01-11T06:04:46.067Z,79.96
2019-01-11T06:07:31.877Z,80.26
2019-01-11T06:09:57.772Z,80.32
2019-01-11T06:12:23.799Z,80.19
2019-01-11T06:14:49.699Z,79.63
2019-01-11T06:17:15.575Z,80.50
2019-01-11T06:19:41.481Z,80.80
2019-01-11T06:22:07.395Z,79.94
2019-01-11T06:24:33.258Z,80.63
2019-01-11T06:26:59.156Z,80.82
2019-01-11T06:29:25.023Z,80.65
2019-01-11T06:31:51.134Z,80.14
2019-01-11T06:34:17.013Z,81.03
2019-01-11T06:36:42.903Z,81.14
2019-01-11T06:39:08.924Z,80.77
2019-01-11T06:41:54.645Z,81.18
2019-01-11T06:44:20.575Z,81.12
2019-01-11T06:46:46.666Z,81.08
2019-01-11T06:49:12.558Z,81.08
2019-01-11T06:51:38.435Z,80.17
2019-01-11T06:54:04.352Z,81.13
2019-01-11T06:56:30.225Z,80.99
2019-01-11T06:58:56.148Z,80.43
2019-01-11T07:01:22.003Z,80.59
2019-01-11T07:03:47.914Z,80.56
2019-01-11T07:06:13.789Z,81.45
2019-01-11T07:08:39.759Z,81.52
2019-01-11T07:11:05.651Z,80.69
2019-01-11T07:13:31.534Z,80.85
2019-01-11T07:15:57.542Z,80.59
2019-01-11T07:18:23.412Z,81.52
2019-01-11T07:20:49.319Z,81.65
2019-01-11T07:23:15.188Z,81.48
2019-01-11T07:25:41.137Z,81.18
2019-01-11T07:28:13.536Z,81.14
2019-01-11T07:38:23.988Z,81.33
2019-01-11T07:40:49.866Z,81.31
2019-01-11T07:43:15.773Z,81.36
2019-01-11T07:45:41.638Z,82.14
2019-01-11T07:48:07.534Z,82.43
2019-01-11T07:50:33.415Z,81.48
2019-01-11T07:52:59.315Z,81.26
2019-01-11T07:55:25.205Z,81.37
2019-01-11T07:57:51.299Z,81.02
2019-01-11T08:00:17.317Z,80.70
2019-01-11T08:02:43.237Z,80.60
2019-01-11T08:05:09.097Z,81.27
2019-01-11T08:07:34.997Z,81.50
2019-01-11T08:13:21.888Z,81.79
2019-01-11T08:15:47.803Z,82.26
2019-01-11T08:18:13.667Z,82.03
2019-01-11T08:20:39.578Z,80.78
2019-01-11T08:23:05.482Z,81.16
2019-01-11T08:25:31.428Z,81.18
2019-01-11T08:27:57.304Z,81.71
2019-01-11T08:30:23.217Z,81.02
2019-01-11T08:32:49.124Z,80.81
2019-01-11T08:38:00.650Z,80.77
2019-01-11T08:40:26.556Z,80.73
2019-01-11T08:42:52.439Z,81.13
2019-01-11T08:45:18.360Z,81.29
2019-01-11T08:47:44.230Z,81.74
2019-01-11T08:50:30.022Z,80.76
2019-01-11T08:58:15.850Z,80.48
2019-01-11T09:03:19.570Z,80.70
2019-01-11T09:05:45.478Z,81.02
2019-01-11T09:08:11.358Z,80.89
2019-01-11T09:13:10.748Z,81.23
2019-01-11T09:15:36.644Z,81.20
2019-01-11T09:21:11.366Z,80.89
2019-01-11T09:23:37.844Z,80.49
2019-01-11T09:26:03.911Z,79.84
2019-01-11T09:28:29.783Z,80.66
2019-01-11T09:30:55.644Z,80.51
2019-01-11T09:33:21.599Z,80.83
2019-01-11T09:35:47.603Z,80.44
2019-01-11T09:40:47.487Z,80.39
2019-01-11T09:43:13.371Z,79.73
2019-01-11T09:45:39.267Z,80.45
2019-01-11T09:48:05.175Z,80.40
2019-01-11T09:50:31.080Z,80.77
2019-01-11T09:52:56.951Z,81.39
2019-01-11T09:55:22.859Z,81.20
2019-01-11T09:57:48.732Z,81.31
2019-01-11T10:00:59.268Z,81.45
2019-01-11T10:03:24.084Z,81.08
2019-01-11T10:05:49.984Z,81.19
2019-01-11T10:08:15.864Z,81.78
2019-01-11T10:11:01.789Z,80.86
2019-01-11T10:13:27.699Z,81.38
2019-01-11T10:15:53.543Z,80.92
2019-01-11T10:18:19.420Z,81.44
2019-01-11T10:23:19.073Z,81.92
2019-01-11T10:25:45.116Z,82.01
2019-01-11T10:28:10.988Z,81.96
2019-01-11T10:30:36.996Z,81.87
2019-01-11T10:33:03.014Z,82.33
2019-01-11T10:35:28.923Z,81.58
2019-01-11T10:37:54.901Z,81.83
2019-01-11T10:40:20.806Z,81.76
2019-01-11T10:42:46.823Z,81.45
2019-01-11T10:48:26.620Z,81.71
2019-01-11T10:50:52.524Z,82.14
2019-01-11T10:53:38.374Z,82.07
2019-01-11T10:56:04.268Z,81.52
2019-01-11T10:58:30.231Z,80.68
2019-01-11T11:00:56.147Z,81.30
2019-01-11T11:03:22.007Z,81.37
2019-01-11T11:05:47.916Z,82.27
2019-01-11T11:08:13.781Z,82.52
2019-01-11T11:10:39.699Z,81.49
2019-01-11T11:13:05.699Z,81.69
2019-01-11T11:15:31.797Z,82.27
2019-01-11T11:17:57.699Z,82.16
2019-01-11T11:20:23.583Z,82.21
2019-01-11T11:22:49.589Z,82.18
2019-01-11T11:25:27.990Z,82.16
2019-01-11T11:27:53.897Z,83.27
2019-01-11T11:30:19.813Z,83.13
2019-01-11T11:33:05.555Z,81.85
2019-01-11T11:35:31.499Z,82.11
2019-01-11T11:37:57.398Z,82.56
2019-01-11T11:40:23.270Z,81.82
2019-01-11T11:45:34.794Z,81.95
2019-01-11T11:48:00.662Z,81.21
2019-01-11T11:50:26.576Z,82.03
2019-01-11T11:52:52.448Z,82.44
2019-01-11T11:55:18.351Z,82.50
2019-01-11T11:57:44.239Z,82.35
2019-01-11T12:00:51.771Z,82.21
2019-01-11T12:03:17.846Z,82.15
2019-01-11T12:05:43.721Z,82.43
2019-01-11T12:08:09.600Z,82.45
2019-01-11T12:10:35.517Z,82.04
2019-01-11T12:13:01.422Z,82.80
2019-01-11T12:15:27.368Z,83.42
2019-01-11T12:17:53.264Z,82.58
2019-01-11T12:21:00.827Z,82.39
2019-01-11T12:23:26.741Z,82.16
2019-01-11T12:25:52.837Z,82.07
2019-01-11T12:28:18.715Z,82.09
2019-01-11T12:30:44.649Z,82.44
2019-01-11T12:33:10.727Z,82.32
2019-01-11T12:35:36.612Z,82.02
2019-01-11T12:38:02.508Z,82.15
2019-01-11T12:40:28.385Z,82.02
2019-01-11T12:42:54.398Z,82.24
2019-01-11T12:45:20.278Z,82.02
2019-01-11T12:47:46.193Z,81.89
2019-01-11T12:50:31.957Z,81.68
2019-01-11T12:52:57.919Z,82.01
2019-01-11T12:55:23.781Z,81.74
2019-01-11T12:57:49.743Z,82.82
2019-01-11T13:03:29.318Z,82.17
2019-01-11T13:05:55.184Z,81.61
2019-01-11T13:08:21.099Z,81.71
2019-01-11T13:10:46.987Z,82.39
2019-01-11T13:13:12.906Z,82.73
2019-01-11T13:15:38.861Z,81.69
2019-01-11T13:18:04.775Z,81.91
2019-01-11T13:20:30.630Z,82.08
2019-01-11T13:22:56.622Z,81.91
2019-01-11T13:25:22.491Z,82.30
2019-01-11T13:27:48.356Z,82.45
2019-01-11T13:30:55.892Z,82.79
2019-01-11T13:33:35.019Z,83.43
2019-01-11T13:36:00.984Z,82.61
2019-01-11T13:38:26.858Z,82.51
2019-01-11T13:40:52.770Z,82.23
2019-01-11T13:43:18.627Z,82.28
2019-01-11T13:45:44.644Z,82.70
2019-01-11T13:48:10.505Z,83.11
2019-01-11T13:51:18.078Z,82.98
2019-01-11T13:53:43.993Z,82.53
2019-01-11T13:56:09.922Z,83.22
2019-01-11T13:58:35.771Z,82.98
2019-01-11T14:01:01.681Z,83.16
2019-01-11T14:03:27.599Z,82.93
2019-01-11T14:05:53.496Z,83.23
2019-01-11T14:08:19.417Z,83.56
2019-01-11T14:10:45.289Z,82.95
2019-01-11T14:13:11.308Z,83.08
2019-01-11T14:15:37.187Z,83.37
2019-01-11T14:18:03.104Z,83.55
2019-01-11T14:20:29.014Z,82.88
2019-01-11T14:23:01.869Z,83.09
2019-01-11T14:25:27.780Z,83.08
2019-01-11T14:27:53.676Z,82.27
2019-01-11T14:30:19.588Z,81.78
2019-01-11T14:32:45.478Z,81.95
2019-01-11T14:35:11.380Z,82.17
2019-01-11T14:37:37.298Z,81.96
2019-01-11T14:43:16.785Z,81.84
2019-01-11T14:45:42.669Z,81.32
2019-01-11T14:48:08.600Z,81.33
2019-01-11T14:50:34.460Z,81.00
2019-01-11T14:53:00.368Z,80.36
2019-01-11T14:55:26.259Z,80.69
2019-01-11T14:57:52.166Z,80.18
2019-01-11T15:00:59.708Z,79.81
2019-01-11T15:03:25.650Z,80.41
2019-01-11T15:05:51.538Z,79.82
2019-01-11T15:08:17.478Z,80.02
2019-01-11T15:10:43.355Z,80.28
2019-01-11T15:13:09.258Z,80.05
2019-01-11T15:15:35.189Z,79.95
2019-01-11T15:18:01.044Z,79.63
2019-01-11T15:20:26.954Z,78.59
2019-01-11T15:22:52.853Z,79.36
2019-01-11T15:25:18.755Z,79.27
2019-01-11T15:27:44.767Z,79.57
2019-01-11T15:30:52.327Z,80.07
2019-01-11T15:33:18.231Z,80.73
2019-01-11T15:35:44.104Z,80.87
2019-01-11T15:40:43.931Z,80.80
2019-01-11T15:43:09.816Z,80.12
2019-01-11T15:45:35.721Z,80.60
2019-01-11T15:48:01.649Z,80.21
2019-01-11T15:51:09.177Z,80.50
2019-01-11T15:53:35.281Z,79.36
2019-01-11T15:58:32.924Z,79.43
2019-01-11T16:00:58.798Z,79.07
2019-01-11T16:03:24.646Z,79.23
2019-01-11T16:09:33.407Z,78.95
2019-01-11T16:12:19.254Z,78.23
2019-01-11T16:15:24.968Z,78.21
2019-01-11T16:21:01.234Z,77.68
2019-01-11T16:23:27.144Z,77.80
2019-01-11T16:25:53.216Z,77.47
2019-01-11T16:28:19.189Z,77.29
2019-01-11T16:30:45.106Z,77.03
2019-01-11T16:33:10.997Z,77.00
2019-01-11T16:35:36.907Z,77.16
2019-01-11T16:41:16.699Z,77.01
2019-01-11T16:43:42.572Z,76.40
2019-01-11T16:46:08.486Z,76.53
2019-01-11T16:48:34.406Z,75.83
2019-01-11T16:51:00.291Z,76.11
2019-01-11T16:53:26.221Z,76.68
2019-01-11T16:55:52.099Z,76.88
2019-01-11T16:58:18.006Z,76.99
2019-01-11T17:00:43.897Z,76.52
2019-01-11T17:03:09.793Z,76.32
2019-01-11T17:05:35.670Z,76.90
2019-01-11T17:08:01.559Z,76.93
2019-01-11T17:10:27.444Z,76.58
2019-01-11T17:12:53.359Z,76.58
2019-01-11T17:15:19.232Z,76.22
2019-01-11T17:17:45.140Z,76.35
2019-01-11T17:20:52.647Z,76.10
2019-01-11T17:23:18.598Z,76.00
2019-01-11T17:25:44.457Z,75.60
2019-01-11T17:28:10.384Z,75.23
2019-01-11T17:30:36.308Z,75.61
2019-01-11T17:33:02.179Z,75.13
2019-01-11T17:35:28.089Z,75.71
2019-01-11T17:37:53.947Z,75.09
2019-01-11T17:40:19.863Z,74.98
2019-01-11T17:42:45.744Z,75.20
2019-01-11T17:45:11.644Z,75.01
2019-01-11T17:47:37.548Z,74.86
2019-01-11T17:50:45.068Z,74.47
2019-01-11T17:53:10.969Z,74.42
2019-01-11T17:55:36.888Z,74.05
2019-01-11T17:58:02.945Z,73.98
2019-01-11T18:00:28.841Z,74.20
2019-01-11T18:02:54.732Z,73.82
2019-01-11T18:06:03.662Z,73.34
2019-01-11T18:08:30.105Z,73.49
2019-01-11T18:10:55.985Z,72.93
2019-01-11T18:13:21.897Z,72.82
2019-01-11T18:15:47.759Z,72.94
2019-01-11T18:18:13.677Z,73.42
2019-01-11T18:20:39.554Z,73.68
2019-01-11T18:23:07.089Z,73.37
2019-01-11T18:25:33.255Z,73.19
2019-01-11T18:27:59.154Z,73.33
2019-01-11T18:30:25.070Z,74.18
2019-01-11T18:32:50.970Z,73.59
2019-01-11T18:35:16.865Z,72.93
2019-01-11T18:37:42.850Z,72.94
2019-01-11T18:40:28.618Z,73.34
2019-01-11T18:42:54.649Z,73.18
2019-01-11T18:45:20.570Z,72.96
2019-01-11T18:47:46.458Z,73.17
2019-01-11T18:50:53.982Z,73.56
2019-01-11T18:53:19.907Z,73.72
2019-01-11T18:55:45.858Z,73.59
2019-01-11T18:58:11.714Z,73.57
2019-01-11T19:00:57.474Z,72.97
2019-01-11T19:03:23.444Z,72.85
2019-01-11T19:05:49.406Z,72.68
2019-01-11T19:08:15.498Z,72.40
2019-01-11T19:10:41.396Z,72.59
2019-01-11T19:13:07.284Z,72.91
2019-01-11T19:15:33.204Z,72.02
2019-01-11T19:17:59.074Z,72.07
2019-01-11T19:21:06.609Z,73.20
2019-01-11T19:23:32.712Z,71.96
2019-01-11T19:25:58.595Z,71.99
2019-01-11T19:28:24.540Z,71.69
2019-01-11T19:30:50.418Z,71.38
2019-01-11T19:33:16.332Z,71.28
2019-01-11T19:35:42.285Z,71.34
2019-01-11T19:38:08.265Z,71.34
2019-01-11T19:40:34.125Z,71.78
2019-01-11T19:43:00.042Z,71.69
2019-01-11T19:45:25.904Z,71.68
2019-01-11T19:47:51.778Z,71.74
2019-01-11T19:50:59.301Z,71.64
2019-01-11T19:53:27.727Z,71.49
2019-01-11T19:55:58.761Z,72.13
2019-01-11T19:58:20.956Z,71.93
2019-01-11T20:00:46.920Z,72.17
2019-01-11T20:03:12.833Z,72.17
2019-01-11T20:05:38.758Z,71.81
2019-01-11T20:08:04.625Z,71.96
2019-01-11T20:10:30.544Z,71.98
2019-01-11T20:12:56.432Z,72.23
2019-01-11T20:15:22.427Z,72.21
2019-01-11T20:17:48.355Z,72.36
2019-01-11T20:20:14.356Z,71.99
2019-01-11T20:22:40.233Z,71.89
2019-01-11T20:25:47.764Z,70.88
2019-01-11T20:28:13.668Z,70.41
2019-01-11T20:30:59.462Z,70.15
2019-01-11T20:33:25.378Z,69.54
2019-01-11T20:35:51.286Z,69.95
2019-01-11T20:38:17.194Z,70.19
2019-01-11T20:40:43.088Z,69.98
2019-01-11T20:45:42.720Z,70.54
2019-01-11T20:48:08.623Z,70.28
2019-01-11T20:50:34.506Z,70.16
2019-01-11T20:53:00.423Z,70.02
2019-01-11T20:55:26.292Z,69.76
2019-01-11T20:57:52.226Z,70.62
2019-01-11T21:00:59.723Z,70.88
2019-01-11T21:03:25.665Z,71.06
2019-01-11T21:05:51.550Z,70.78
2019-01-11T21:08:17.476Z,71.47
2019-01-11T21:10:43.358Z,71.61
2019-01-11T21:13:09.273Z,71.41
2019-01-11T21:15:35.171Z,71.71
2019-01-11T21:18:01.051Z,71.67
2019-01-11T21:20:26.963Z,71.40
2019-01-11T21:22:52.873Z,71.38
2019-01-11T21:28:32.206Z,72.13
2019-01-11T21:30:58.081Z,71.67
2019-01-11T21:33:23.979Z,71.47
2019-01-11T21:35:49.885Z,71.54
2019-01-11T21:38:15.787Z,71.70
2019-01-11T21:40:41.668Z,72.70
2019-01-11T21:43:07.589Z,72.22
2019-01-11T21:45:33.437Z,71.80
2019-01-11T21:47:59.350Z,71.32
2019-01-11T21:50:25.218Z,71.39
2019-01-11T21:52:51.132Z,71.81
2019-01-11T21:55:17.005Z,71.63
2019-01-11T21:58:24.542Z,71.59
2019-01-11T22:00:50.648Z,71.66
2019-01-11T22:03:16.507Z,71.43
2019-01-11T22:05:42.373Z,71.40
2019-01-11T22:08:08.278Z,71.31
2019-01-11T22:10:34.172Z,71.24
2019-01-11T22:13:00.070Z,71.74
2019-01-11T22:15:25.958Z,71.29
2019-01-11T22:17:51.864Z,71.00
2019-01-11T22:20:17.730Z,70.50
2019-01-11T22:22:43.656Z,71.10
2019-01-11T22:25:51.191Z,70.21
2019-01-11T22:28:17.173Z,70.54
2019-01-11T22:30:43.421Z,70.02
2019-01-11T22:33:10.913Z,69.70
2019-01-11T22:35:36.839Z,69.25
2019-01-11T22:38:02.773Z,69.41
2019-01-11T22:40:28.714Z,68.30
2019-01-11T22:43:36.284Z,68.85
2019-01-11T22:46:02.190Z,68.11
2019-01-11T22:48:28.120Z,67.63
2019-01-11T22:50:54.024Z,67.52
2019-01-11T22:53:19.898Z,67.47
2019-01-11T22:55:45.822Z,67.45
2019-01-11T22:58:11.704Z,67.34
2019-01-11T23:01:19.229Z,68.01
2019-01-11T23:03:45.159Z,68.91
2019-01-11T23:06:52.689Z,69.18
2019-01-11T23:09:18.678Z,70.09
2019-01-11T23:12:24.335Z,70.42
2019-01-11T23:14:50.297Z,69.65
2019-01-11T23:17:57.788Z,69.69
2019-01-11T23:20:23.743Z,69.88
2019-01-11T23:22:49.608Z,68.61
2019-01-11T23:25:15.516Z,68.46
2019-01-11T23:27:41.426Z,68.09
2019-01-11T23:33:21.516Z,67.05
2019-01-11T23:35:47.425Z,67.29
2019-01-11T23:38:13.338Z,67.19
2019-01-11T23:40:39.206Z,67.66
2019-01-11T23:43:05.122Z,67.77
2019-01-11T23:45:31.008Z,68.14
2019-01-11T23:47:56.916Z,68.85
2019-01-11T23:50:22.816Z,69.11
2019-01-11T23:52:48.707Z,69.36
2019-01-11T23:55:14.632Z,69.84
2019-01-11T23:57:40.499Z,70.76
